Time;durP1;ratioP1;P1;durP2;ratioP2;P2;SDS_P1;SDS_P2;PMS_P1;PMS_P2;Temp;Humidity;BMP_temperature;BMP_pressure;BME280_temperature;BME280_humidity;BME280_pressure;Samples;Min_cycle;Max_cycle;Signal;HPM_P1;HPM_P2
2021/08/22 00:01:08;;;;;;;31.85;27.63;;;18.50;90.30;;;;;;5018693;28;20046;-72
2021/08/22 00:03:34;;;;;;;32.90;27.02;;;18.40;90.40;;;;;;5034883;28;20030;-71
2021/08/22 00:06:00;;;;;;;34.50;27.13;;;18.50;90.50;;;;;;5019348;28;20420;-71
2021/08/22 00:08:25;;;;;;;34.20;28.00;;;18.40;90.60;;;;;;5012111;28;20026;-72
2021/08/22 00:10:51;;;;;;;34.72;28.90;;;18.50;90.50;;;;;;5012950;28;20026;-72
2021/08/22 00:13:17;;;;;;;36.00;29.05;;;18.50;90.50;;;;;;5018810;28;20018;-73
2021/08/22 00:15:43;;;;;;;28.42;25.23;;;18.50;90.20;;;;;;5017937;28;20030;-72
2021/08/22 00:18:09;;;;;;;33.83;28.58;;;18.50;90.10;;;;;;5030787;28;20061;-72
2021/08/22 00:20:34;;;;;;;35.50;27.95;;;18.50;90.30;;;;;;5008651;28;20045;-71
2021/08/22 00:23:00;;;;;;;33.92;28.70;;;18.60;90.30;;;;;;5023036;28;20067;-73
2021/08/22 00:25:26;;;;;;;32.63;26.42;;;18.50;90.30;;;;;;5021042;28;20077;-71
2021/08/22 00:27:52;;;;;;;31.00;26.75;;;18.50;90.20;;;;;;5012984;28;20061;-72
2021/08/22 00:30:17;;;;;;;31.08;27.23;;;18.50;90.00;;;;;;5014990;28;21196;-72
2021/08/22 00:32:43;;;;;;;32.47;25.65;;;18.40;89.90;;;;;;5020798;28;20033;-71
2021/08/22 00:35:10;;;;;;;36.22;26.95;;;18.40;90.20;;;;;;5029382;28;20302;-71
2021/08/22 00:37:35;;;;;;;33.67;27.30;;;18.40;90.20;;;;;;5026349;28;20453;-74
2021/08/22 00:40:01;;;;;;;29.70;26.05;;;18.50;90.10;;;;;;5013613;28;20054;-72
2021/08/22 00:42:33;;;;;;;27.73;23.58;;;18.40;90.00;;;;;;5026177;28;20416;-73
2021/08/22 00:45:09;;;;;;;28.25;23.00;;;18.40;89.90;;;;;;5021957;28;20030;-72
2021/08/22 00:47:42;;;;;;;25.30;21.55;;;18.40;89.70;;;;;;5027922;28;20021;-72
2021/08/22 00:50:11;;;;;;;25.88;21.10;;;18.40;89.70;;;;;;5013277;28;20038;-72
2021/08/22 00:52:37;;;;;;;23.23;20.73;;;18.30;89.60;;;;;;5027069;28;20081;-73
2021/08/22 00:55:04;;;;;;;24.60;20.33;;;18.40;89.50;;;;;;5028107;28;20029;-72
2021/08/22 00:57:30;;;;;;;24.65;19.50;;;18.40;89.50;;;;;;5028393;28;20112;-72
2021/08/22 00:59:56;;;;;;;21.98;19.40;;;18.40;89.30;;;;;;5012848;28;20548;-74
2021/08/22 01:02:30;;;;;;;25.95;20.30;;;18.50;89.30;;;;;;5017751;28;20033;-72
2021/08/22 01:05:05;;;;;;;21.08;18.45;;;18.40;89.00;;;;;;5025467;28;20485;-73
2021/08/22 01:07:59;;;;;;;;;;;18.40;89.00;;;;;;5027667;28;20121;-71
2021/08/22 01:10:28;;;;;;;24.73;19.08;;;18.40;89.00;;;;;;5010243;28;19905;-72
2021/08/22 01:13:05;;;;;;;22.40;19.55;;;18.40;88.90;;;;;;5013382;28;20048;-74
2021/08/22 01:15:38;;;;;;;22.13;18.92;;;18.40;88.70;;;;;;5014033;28;20386;-73
2021/08/22 01:18:08;;;;;;;23.00;19.30;;;18.40;88.90;;;;;;5036845;28;20065;-72
2021/08/22 01:20:42;;;;;;;24.20;20.42;;;18.30;88.90;;;;;;5029198;28;20473;-73
2021/08/22 01:23:09;;;;;;;24.23;20.42;;;18.40;88.90;;;;;;5033012;28;20421;-73
2021/08/22 01:25:37;;;;;;;20.63;18.08;;;18.30;89.00;;;;;;5029600;28;20241;-71
2021/08/22 01:28:06;;;;;;;25.02;18.48;;;18.30;89.00;;;;;;5029384;28;20029;-72
2021/08/22 01:30:40;;;;;;;23.02;18.65;;;18.30;88.90;;;;;;5030474;28;20372;-72
2021/08/22 01:33:11;;;;;;;20.60;16.95;;;18.30;89.00;;;;;;5030551;28;20492;-73
2021/08/22 01:35:36;;;;;;;22.30;19.15;;;18.30;89.10;;;;;;5030176;28;20021;-73
2021/08/22 01:38:02;;;;;;;23.13;18.38;;;18.30;88.90;;;;;;5025685;28;20041;-79
2021/08/22 01:40:28;;;;;;;21.92;17.98;;;18.30;89.00;;;;;;5027629;28;20038;-72
2021/08/22 01:42:55;;;;;;;22.17;18.67;;;18.30;88.90;;;;;;5023571;28;20556;-81
2021/08/22 01:45:21;;;;;;;21.80;18.25;;;18.30;88.90;;;;;;5015764;28;21633;-72
2021/08/22 01:47:48;;;;;;;21.40;18.58;;;18.30;88.90;;;;;;5019171;28;20033;-72
2021/08/22 01:50:16;;;;;;;20.58;17.73;;;18.30;89.00;;;;;;5011861;28;20025;-72
2021/08/22 01:52:42;;;;;;;20.60;17.35;;;18.30;89.00;;;;;;5022673;28;20025;-72
2021/08/22 01:55:08;;;;;;;23.33;18.75;;;18.20;89.10;;;;;;5026994;28;20044;-72
2021/08/22 01:57:39;;;;;;;21.50;18.20;;;18.20;89.10;;;;;;5012109;28;20018;-71
2021/08/22 02:00:06;;;;;;;26.48;19.38;;;18.30;89.10;;;;;;5012571;28;20065;-73
2021/08/22 02:02:31;;;;;;;22.38;18.75;;;18.20;89.00;;;;;;5016009;28;20038;-72
2021/08/22 02:05:03;;;;;;;22.95;20.08;;;18.20;89.10;;;;;;5017258;28;20046;-71
2021/08/22 02:07:31;;;;;;;24.45;19.55;;;18.20;89.10;;;;;;5013940;28;20021;-72
2021/08/22 02:10:10;;;;;;;25.63;19.08;;;18.20;89.30;;;;;;5015257;28;20046;-72
2021/08/22 02:12:38;;;;;;;22.15;19.00;;;18.20;89.30;;;;;;5022723;28;20022;-74
2021/08/22 02:15:10;;;;;;;20.70;18.48;;;18.20;89.20;;;;;;5013315;28;20480;-78
2021/08/22 02:17:42;;;;;;;21.52;18.60;;;18.30;89.20;;;;;;5018020;28;20038;-72
2021/08/22 02:20:08;;;;;;;21.20;18.55;;;18.30;89.20;;;;;;5010008;28;20026;-73
2021/08/22 02:22:35;;;;;;;20.35;18.05;;;18.40;89.20;;;;;;5022337;28;20046;-74
2021/08/22 02:25:03;;;;;;;23.70;19.42;;;18.30;89.10;;;;;;5024297;28;20021;-74
2021/08/22 02:27:30;;;;;;;23.42;18.38;;;18.40;89.00;;;;;;5014979;28;20025;-72
2021/08/22 02:29:56;;;;;;;23.30;19.23;;;18.30;88.90;;;;;;5010269;28;20488;-71
2021/08/22 02:32:23;;;;;;;21.35;17.70;;;18.30;89.00;;;;;;5015128;28;20373;-74
2021/08/22 02:34:50;;;;;;;23.98;19.00;;;18.30;89.10;;;;;;5014669;28;20029;-72
2021/08/22 02:37:16;;;;;;;22.42;18.50;;;18.20;89.10;;;;;;5028804;28;20032;-72
2021/08/22 02:39:42;;;;;;;23.02;18.98;;;18.20;89.10;;;;;;5015108;28;20026;-72
2021/08/22 02:42:07;;;;;;;21.08;18.77;;;18.30;89.10;;;;;;5020101;28;20045;-72
2021/08/22 02:44:33;;;;;;;19.95;17.67;;;18.30;89.20;;;;;;5017121;28;20483;-72
2021/08/22 02:46:59;;;;;;;24.70;20.50;;;18.30;89.30;;;;;;5026696;28;20058;-72
2021/08/22 02:49:25;;;;;;;22.30;18.20;;;18.30;89.50;;;;;;5016230;28;20026;-72
2021/08/22 02:51:51;;;;;;;23.55;18.60;;;18.30;89.60;;;;;;5019993;28;20025;-71
2021/08/22 02:54:17;;;;;;;24.15;19.33;;;18.20;89.60;;;;;;5019682;28;20034;-72
2021/08/22 02:56:43;;;;;;;20.17;17.63;;;18.30;89.70;;;;;;5011316;28;20128;-73
2021/08/22 02:59:08;;;;;;;22.33;18.02;;;18.30;89.60;;;;;;5015917;28;20113;-71
2021/08/22 03:01:34;;;;;;;23.02;18.67;;;18.30;89.70;;;;;;5014658;28;20061;-73
2021/08/22 03:04:00;;;;;;;21.02;18.73;;;18.30;89.90;;;;;;5029143;28;20041;-72
2021/08/22 03:06:25;;;;;;;22.55;18.63;;;18.30;89.90;;;;;;5031402;28;20046;-71
2021/08/22 03:08:51;;;;;;;22.55;18.50;;;18.30;90.00;;;;;;5021099;28;20031;-73
2021/08/22 03:11:18;;;;;;;20.25;17.17;;;18.20;90.10;;;;;;5023718;28;20038;-72
2021/08/22 03:13:45;;;;;;;21.42;17.80;;;18.20;90.00;;;;;;5017434;28;20116;-72
2021/08/22 03:16:11;;;;;;;20.45;17.15;;;18.20;90.10;;;;;;5022764;28;20044;-71
2021/08/22 03:18:36;;;;;;;19.52;17.48;;;18.10;90.10;;;;;;5021054;28;20033;-73
2021/08/22 03:21:03;;;;;;;20.08;16.98;;;18.10;90.20;;;;;;5016640;28;20057;-72
2021/08/22 03:23:29;;;;;;;19.20;17.02;;;18.10;90.40;;;;;;5028804;28;20098;-72
2021/08/22 03:25:54;;;;;;;19.48;16.17;;;18.10;90.60;;;;;;5026662;28;20113;-72
2021/08/22 03:28:20;;;;;;;22.90;17.25;;;18.10;90.50;;;;;;5015172;28;20038;-75
2021/08/22 03:30:46;;;;;;;20.08;16.23;;;18.10;90.50;;;;;;5019063;28;20025;-71
2021/08/22 03:33:12;;;;;;;20.25;15.70;;;18.10;90.50;;;;;;5021817;28;20033;-72
2021/08/22 03:35:38;;;;;;;20.15;15.60;;;18.10;90.50;;;;;;5025164;28;20095;-72
2021/08/22 03:38:03;;;;;;;20.35;15.60;;;18.10;90.40;;;;;;5016168;28;20025;-72
2021/08/22 03:40:29;;;;;;;16.73;14.23;;;18.10;90.50;;;;;;5015299;28;20022;-73
2021/08/22 03:42:55;;;;;;;17.92;13.35;;;18.10;90.50;;;;;;5027689;28;20021;-71
2021/08/22 03:45:20;;;;;;;18.02;13.52;;;18.10;90.50;;;;;;5022164;28;21091;-75
2021/08/22 03:47:46;;;;;;;16.95;13.25;;;18.10;90.40;;;;;;5018278;28;20125;-72
2021/08/22 03:50:12;;;;;;;15.90;12.35;;;18.10;90.40;;;;;;5026024;28;20469;-72
2021/08/22 03:52:37;;;;;;;16.13;12.35;;;18.00;90.40;;;;;;5036560;28;20037;-74
2021/08/22 03:55:04;;;;;;;17.77;12.43;;;18.10;90.40;;;;;;5016020;28;20022;-73
2021/08/22 03:57:29;;;;;;;18.58;12.00;;;18.00;90.40;;;;;;5014774;28;20034;-72
2021/08/22 03:59:55;;;;;;;16.20;10.90;;;18.00;90.50;;;;;;5015443;28;20042;-73
2021/08/22 04:02:21;;;;;;;18.48;10.25;;;17.90;90.40;;;;;;5024578;28;20428;-74
2021/08/22 04:04:48;;;;;;;15.65;10.32;;;18.00;90.20;;;;;;5013710;28;20036;-75
2021/08/22 04:07:13;;;;;;;15.10;10.60;;;17.90;90.20;;;;;;5013336;28;20120;-71
2021/08/22 04:09:39;;;;;;;16.35;9.52;;;17.80;90.30;;;;;;5017593;28;20037;-74
2021/08/22 04:12:05;;;;;;;15.23;9.40;;;17.80;90.30;;;;;;5014563;28;20053;-71
2021/08/22 04:14:31;;;;;;;13.63;8.68;;;17.80;90.20;;;;;;5017872;28;20522;-71
2021/08/22 04:16:56;;;;;;;15.05;8.73;;;17.80;90.30;;;;;;5019722;28;20041;-72
2021/08/22 04:19:22;;;;;;;14.95;8.88;;;17.80;90.30;;;;;;5030829;28;20559;-73
2021/08/22 04:21:48;;;;;;;15.18;8.85;;;17.80;90.30;;;;;;5035224;28;20441;-74
2021/08/22 04:24:14;;;;;;;14.40;7.60;;;17.80;90.30;;;;;;5030225;28;20041;-76
2021/08/22 04:26:40;;;;;;;15.10;8.60;;;17.80;90.30;;;;;;5021487;28;20072;-71
2021/08/22 04:29:10;;;;;;;14.35;8.35;;;17.80;90.00;;;;;;5013519;28;20034;-73
2021/08/22 04:31:36;;;;;;;15.63;7.88;;;17.70;89.90;;;;;;5024388;28;20037;-74
2021/08/22 04:34:02;;;;;;;14.88;9.00;;;17.70;89.80;;;;;;5031120;28;20057;-73
2021/08/22 04:36:27;;;;;;;13.32;8.93;;;17.70;90.10;;;;;;5030049;28;20132;-71
2021/08/22 04:38:53;;;;;;;15.57;7.57;;;17.70;90.10;;;;;;5034497;28;20469;-71
2021/08/22 04:41:20;;;;;;;13.00;8.32;;;17.80;89.90;;;;;;5029294;28;20354;-74
2021/08/22 04:43:47;;;;;;;14.35;9.02;;;17.70;90.00;;;;;;5022552;28;20030;-72
2021/08/22 04:46:13;;;;;;;13.07;8.13;;;17.70;89.80;;;;;;5024897;28;20049;-73
2021/08/22 04:48:39;;;;;;;15.07;8.20;;;17.70;89.80;;;;;;5022612;28;20068;-73
2021/08/22 04:51:05;;;;;;;18.85;8.50;;;17.70;89.80;;;;;;5024171;28;20049;-74
2021/08/22 04:53:32;;;;;;;13.52;7.30;;;17.70;90.00;;;;;;5036284;28;20033;-73
2021/08/22 04:55:58;;;;;;;15.00;7.45;;;17.80;90.00;;;;;;5022532;28;20044;-72
2021/08/22 04:58:24;;;;;;;13.00;7.28;;;17.70;89.60;;;;;;5028632;28;20030;-72
2021/08/22 05:00:49;;;;;;;13.18;7.05;;;17.70;89.60;;;;;;5018725;28;20079;-73
2021/08/22 05:03:15;;;;;;;16.38;6.97;;;17.70;89.50;;;;;;5029533;28;20034;-73
2021/08/22 05:05:40;;;;;;;10.77;6.38;;;17.70;89.60;;;;;;5030103;28;20038;-72
2021/08/22 05:08:06;;;;;;;12.23;6.55;;;17.60;89.40;;;;;;5021247;28;20045;-73
2021/08/22 05:10:32;;;;;;;11.93;6.32;;;17.70;89.50;;;;;;5026701;28;20029;-73
2021/08/22 05:12:57;;;;;;;11.75;6.47;;;17.70;89.50;;;;;;5020273;28;20033;-72
2021/08/22 05:15:23;;;;;;;14.02;7.20;;;17.70;89.30;;;;;;5027191;28;20165;-73
2021/08/22 05:17:49;;;;;;;12.77;6.97;;;17.70;89.00;;;;;;5020429;28;20525;-72
2021/08/22 05:20:14;;;;;;;13.63;7.32;;;17.70;89.10;;;;;;5024636;28;20041;-72
2021/08/22 05:22:40;;;;;;;11.80;6.57;;;17.70;89.20;;;;;;5031996;28;20113;-72
2021/08/22 05:25:07;;;;;;;14.48;6.55;;;17.70;88.90;;;;;;5025556;28;20465;-79
2021/08/22 05:27:32;;;;;;;14.85;7.45;;;17.70;88.50;;;;;;5029111;28;20032;-74
2021/08/22 05:29:58;;;;;;;13.68;6.97;;;17.80;88.60;;;;;;5024908;28;20030;-72
2021/08/22 05:32:24;;;;;;;17.13;7.05;;;17.80;88.50;;;;;;5019436;28;20037;-72
2021/08/22 05:34:49;;;;;;;13.13;6.60;;;17.80;88.30;;;;;;5014452;28;20049;-73
2021/08/22 05:37:15;;;;;;;14.30;6.90;;;17.80;88.20;;;;;;5012353;28;20038;-72
2021/08/22 05:39:41;;;;;;;18.30;7.72;;;17.80;88.30;;;;;;5021830;28;20060;-71
2021/08/22 05:42:08;;;;;;;17.42;7.18;;;17.80;88.10;;;;;;5022786;28;20515;-70
2021/08/22 05:44:34;;;;;;;14.07;6.82;;;17.70;88.30;;;;;;5027909;28;20025;-70
2021/08/22 05:47:00;;;;;;;16.40;8.27;;;17.80;88.30;;;;;;5030946;28;20046;-71
2021/08/22 05:49:26;;;;;;;13.30;7.68;;;17.90;88.40;;;;;;5016009;28;20488;-70
2021/08/22 05:51:51;;;;;;;13.80;6.88;;;17.90;88.40;;;;;;5016629;28;20112;-70
2021/08/22 05:54:17;;;;;;;13.57;6.90;;;17.90;88.10;;;;;;5024553;28;20088;-71
2021/08/22 05:56:43;;;;;;;11.77;6.75;;;17.90;87.60;;;;;;5028202;28;20465;-71
2021/08/22 05:59:08;;;;;;;12.57;6.97;;;17.90;87.50;;;;;;5028327;28;20112;-75
2021/08/22 06:01:35;;;;;;;11.73;6.50;;;18.00;87.50;;;;;;5026914;28;20068;-72
2021/08/22 06:04:00;;;;;;;13.00;6.78;;;17.90;87.30;;;;;;5028388;28;20087;-70
2021/08/22 06:06:26;;;;;;;15.23;6.68;;;17.90;87.30;;;;;;5028584;28;20420;-70
2021/08/22 06:08:52;;;;;;;11.63;6.47;;;17.90;86.70;;;;;;5025602;28;20021;-70
2021/08/22 06:11:17;;;;;;;14.15;7.15;;;17.90;87.10;;;;;;5025572;28;20924;-70
2021/08/22 06:13:43;;;;;;;14.18;7.25;;;18.00;86.70;;;;;;5028849;28;20159;-72
2021/08/22 06:16:08;;;;;;;13.13;6.55;;;18.00;86.60;;;;;;5018742;28;20159;-70
2021/08/22 06:18:34;;;;;;;15.77;7.63;;;18.00;86.60;;;;;;5020974;28;20026;-70
2021/08/22 06:21:00;;;;;;;13.93;6.78;;;18.10;86.30;;;;;;5025138;28;20033;-70
2021/08/22 06:23:25;;;;;;;14.27;6.63;;;18.10;86.30;;;;;;5035839;28;20053;-70
2021/08/22 06:25:51;;;;;;;13.65;6.75;;;18.10;86.10;;;;;;5028758;28;20073;-70
2021/08/22 06:28:17;;;;;;;14.60;7.55;;;18.10;86.00;;;;;;5029258;28;20038;-70
2021/08/22 06:30:43;;;;;;;14.07;7.90;;;18.10;85.90;;;;;;5029134;28;20072;-71
2021/08/22 06:33:09;;;;;;;15.13;7.90;;;18.20;85.70;;;;;;5027023;28;20057;-73
2021/08/22 06:35:35;;;;;;;17.38;7.60;;;18.20;85.70;;;;;;5029160;28;20029;-70
2021/08/22 06:38:01;;;;;;;15.38;7.82;;;18.10;85.60;;;;;;5026428;28;20535;-72
2021/08/22 06:40:27;;;;;;;19.50;8.02;;;18.10;85.50;;;;;;5024952;28;20036;-71
2021/08/22 06:42:53;;;;;;;16.45;7.30;;;18.00;85.70;;;;;;5025786;28;20030;-70
2021/08/22 06:45:18;;;;;;;15.20;8.00;;;18.00;86.00;;;;;;5016951;28;20045;-70
2021/08/22 06:47:46;;;;;;;17.02;7.68;;;18.00;85.80;;;;;;5029893;28;20091;-71
2021/08/22 06:50:13;;;;;;;18.42;7.35;;;17.80;85.80;;;;;;5023048;28;20113;-72
2021/08/22 06:52:38;;;;;;;13.43;7.43;;;17.80;86.20;;;;;;5032938;28;20120;-71
2021/08/22 06:55:04;;;;;;;16.77;7.45;;;17.80;86.30;;;;;;5014031;28;20109;-71
2021/08/22 06:57:30;;;;;;;16.27;7.88;;;17.80;86.10;;;;;;5019828;28;20076;-70
2021/08/22 06:59:56;;;;;;;16.25;7.97;;;17.80;86.20;;;;;;5011148;28;20025;-71
2021/08/22 07:02:21;;;;;;;17.20;7.13;;;17.80;86.00;;;;;;5025752;28;20120;-70
2021/08/22 07:04:47;;;;;;;15.13;6.95;;;17.90;86.10;;;;;;5021479;28;20104;-71
2021/08/22 07:07:13;;;;;;;15.57;7.30;;;18.10;86.10;;;;;;5010866;28;20034;-75
2021/08/22 07:09:39;;;;;;;17.85;7.43;;;18.40;85.30;;;;;;5021144;28;20029;-70
2021/08/22 07:12:05;;;;;;;13.00;6.50;;;18.60;84.30;;;;;;5026895;28;20025;-70
2021/08/22 07:14:31;;;;;;;17.00;7.35;;;18.80;84.00;;;;;;5028992;28;20026;-70
2021/08/22 07:16:56;;;;;;;12.10;6.22;;;19.10;83.00;;;;;;5028017;28;20056;-70
2021/08/22 07:19:22;;;;;;;12.63;6.32;;;19.20;82.10;;;;;;5010232;28;20370;-70
2021/08/22 07:21:48;;;;;;;14.23;7.03;;;19.30;82.40;;;;;;5023640;28;20037;-70
2021/08/22 07:24:13;;;;;;;13.88;7.13;;;19.30;82.00;;;;;;5021478;28;20030;-72
2021/08/22 07:26:39;;;;;;;15.52;6.68;;;19.10;82.30;;;;;;5026823;28;20081;-70
2021/08/22 07:29:05;;;;;;;15.30;6.90;;;19.10;82.40;;;;;;5018261;28;20477;-70
2021/08/22 07:31:31;;;;;;;13.63;6.28;;;18.90;82.60;;;;;;5019193;28;20112;-70
2021/08/22 07:33:57;;;;;;;13.68;6.22;;;18.70;83.40;;;;;;5020823;28;20504;-71
2021/08/22 07:36:23;;;;;;;14.38;7.30;;;18.60;83.70;;;;;;5010268;28;20037;-69
2021/08/22 07:38:49;;;;;;;10.77;6.47;;;18.50;83.70;;;;;;5015437;28;20471;-70
2021/08/22 07:41:14;;;;;;;12.57;7.03;;;18.50;84.00;;;;;;5015348;28;20037;-71
2021/08/22 07:43:40;;;;;;;13.02;6.50;;;18.60;84.40;;;;;;5024520;28;20038;-70
2021/08/22 07:46:06;;;;;;;13.43;6.60;;;18.50;84.30;;;;;;5026575;28;20045;-70
2021/08/22 07:48:31;;;;;;;13.90;6.13;;;18.50;84.50;;;;;;5024567;28;20029;-71
2021/08/22 07:50:57;;;;;;;13.07;6.32;;;18.50;84.10;;;;;;5017605;28;20037;-69
2021/08/22 07:53:23;;;;;;;14.93;6.80;;;18.50;84.40;;;;;;5032737;28;20037;-69
2021/08/22 07:55:48;;;;;;;11.50;6.75;;;18.40;84.50;;;;;;5022882;28;20037;-71
2021/08/22 07:58:14;;;;;;;11.50;6.18;;;18.40;85.20;;;;;;5017258;28;20041;-70
2021/08/22 08:00:40;;;;;;;10.10;5.95;;;18.40;85.20;;;;;;5028214;28;20037;-74
2021/08/22 08:03:06;;;;;;;13.82;6.68;;;18.50;85.20;;;;;;5019051;28;20046;-70
2021/08/22 08:05:31;;;;;;;9.25;5.32;;;18.60;85.50;;;;;;5025330;28;20037;-71
2021/08/22 08:07:57;;;;;;;9.98;5.50;;;18.60;84.80;;;;;;5017498;28;20029;-70
2021/08/22 08:10:24;;;;;;;11.18;5.80;;;18.60;84.50;;;;;;5026820;28;20469;-70
2021/08/22 08:12:50;;;;;;;10.43;5.90;;;18.80;85.10;;;;;;5021365;28;20472;-70
2021/08/22 08:15:16;;;;;;;10.35;5.50;;;18.80;84.70;;;;;;5025851;28;20140;-77
2021/08/22 08:17:42;;;;;;;8.30;4.90;;;18.90;84.10;;;;;;5024702;28;20509;-69
2021/08/22 08:20:08;;;;;;;11.98;5.72;;;19.00;84.20;;;;;;5013248;28;20448;-70
2021/08/22 08:22:33;;;;;;;10.57;5.28;;;19.00;84.00;;;;;;5023378;28;20125;-69
2021/08/22 08:24:59;;;;;;;10.23;5.43;;;19.00;83.80;;;;;;5027582;28;20121;-70
2021/08/22 08:27:25;;;;;;;9.27;5.30;;;19.00;83.90;;;;;;5022040;28;20053;-69
2021/08/22 08:29:51;;;;;;;11.68;5.90;;;19.00;84.40;;;;;;5013555;28;20401;-73
2021/08/22 08:32:17;;;;;;;10.30;5.78;;;19.00;83.90;;;;;;5015755;28;20065;-76
2021/08/22 08:34:43;;;;;;;10.07;5.60;;;19.10;84.40;;;;;;5026358;28;20405;-69
2021/08/22 08:37:08;;;;;;;8.68;5.10;;;19.30;84.00;;;;;;5016811;28;20045;-70
2021/08/22 08:39:34;;;;;;;8.00;4.22;;;19.50;83.10;;;;;;5026377;28;20110;-70
2021/08/22 08:42:23;;;;;;;6.10;3.90;;;19.50;82.60;;;;;;5012599;28;20041;-70
2021/08/22 08:44:52;;;;;;;6.80;3.42;;;19.70;81.60;;;;;;5017655;28;20025;-70
2021/08/22 08:47:19;;;;;;;7.35;3.70;;;20.00;79.90;;;;;;5024884;28;20431;-76
2021/08/22 08:49:59;;;;;;;7.05;3.17;;;20.10;79.60;;;;;;5027396;28;20045;-70
2021/08/22 08:52:35;;;;;;;5.65;3.20;;;20.20;77.60;;;;;;5015004;28;20519;-70
2021/08/22 08:55:20;;;;;;;6.22;2.80;;;19.90;78.70;;;;;;5020438;28;20041;-70
2021/08/22 08:57:46;;;;;;;7.20;2.97;;;19.80;78.70;;;;;;5024421;28;20037;-70
2021/08/22 09:00:35;;;;;;;5.80;2.53;;;20.00;78.50;;;;;;5007735;28;20098;-75
2021/08/22 09:03:02;;;;;;;5.85;2.33;;;20.10;78.10;;;;;;4997931;28;20109;-72
2021/08/22 09:05:52;;;;;;;5.45;2.60;;;20.30;78.30;;;;;;4995605;28;20050;-70
2021/08/22 09:08:45;;;;;;;6.40;3.20;;;20.60;78.00;;;;;;4997462;28;20088;-71
2021/08/22 09:11:20;;;;;;;6.57;3.42;;;20.70;78.00;;;;;;5013218;28;20037;-71
2021/08/22 09:13:58;;;;;;;8.07;4.03;;;21.00;78.40;;;;;;5018119;28;20050;-73
2021/08/22 09:16:35;;;;;;;6.05;3.33;;;21.20;77.60;;;;;;5020143;28;20096;-71
2021/08/22 09:19:37;;;;;;;6.00;2.88;;;21.20;76.20;;;;;;5021453;28;20025;-74
2021/08/22 09:22:40;;;;;;;6.28;2.50;;;21.30;76.40;;;;;;5021790;28;20056;-71
2021/08/22 09:25:43;;;;;;;6.18;2.58;;;21.00;77.10;;;;;;5006932;28;20046;-71
2021/08/22 09:28:46;;;;;;;5.22;2.53;;;21.30;77.20;;;;;;5014937;28;20057;-70
2021/08/22 09:31:49;;;;;;;7.78;2.45;;;21.20;76.20;;;;;;5022027;28;20095;-70
2021/08/22 09:34:48;;;;;;;8.57;2.78;;;21.30;75.90;;;;;;5015637;28;20029;-72
2021/08/22 09:37:29;;;;;;;7.53;2.70;;;21.20;75.90;;;;;;5012549;28;20064;-70
2021/08/22 09:40:32;;;;;;;8.18;2.60;;;21.50;76.10;;;;;;5022728;28;20663;-70
2021/08/22 09:43:16;;;;;;;9.38;3.38;;;21.90;75.10;;;;;;5015134;28;20117;-72
2021/08/22 09:46:03;;;;;;;6.18;2.50;;;21.70;72.10;;;;;;5019691;28;20405;-70
2021/08/22 09:48:58;;;;;;;9.13;2.92;;;21.70;73.00;;;;;;5013153;28;20188;-70
2021/08/22 09:51:52;;;;;;;6.57;2.95;;;21.60;74.10;;;;;;5016138;28;20046;-71
2021/08/22 09:54:55;;;;;;;9.23;3.15;;;21.80;73.30;;;;;;5011681;28;20028;-71
2021/08/22 09:57:42;;;;;;;11.32;3.35;;;21.70;72.50;;;;;;5014301;28;20029;-70
2021/08/22 10:00:41;;;;;;;6.32;2.88;;;21.60;72.40;;;;;;5023032;28;20022;-72
2021/08/22 10:03:28;;;;;;;6.88;2.70;;;21.10;73.50;;;;;;5020199;28;20037;-72
2021/08/22 10:06:17;;;;;;;8.15;2.65;;;21.60;74.10;;;;;;5016153;28;20050;-73
2021/08/22 10:08:52;;;;;;;5.40;2.55;;;21.90;72.70;;;;;;5017257;28;20042;-70
2021/08/22 10:11:23;;;;;;;6.00;2.50;;;21.90;70.20;;;;;;5012894;28;20470;-71
2021/08/22 10:13:48;;;;;;;7.18;3.00;;;21.80;72.10;;;;;;5018365;28;20037;-71
2021/08/22 10:16:19;;;;;;;8.60;2.90;;;21.30;71.40;;;;;;5025339;28;20042;-71
2021/08/22 10:18:44;;;;;;;6.07;2.60;;;21.40;71.10;;;;;;5017986;28;20038;-72
2021/08/22 10:21:11;;;;;;;6.72;2.72;;;21.40;70.20;;;;;;5014113;28;20048;-72
2021/08/22 10:23:42;;;;;;;8.65;3.28;;;21.60;71.40;;;;;;5027904;28;20551;-72
2021/08/22 10:26:09;;;;;;;6.07;3.50;;;22.30;68.80;;;;;;5014068;28;20073;-72
2021/08/22 10:29:07;;;;;;;7.75;4.20;;;22.40;69.60;;;;;;5012117;28;20045;-71
2021/08/22 10:32:01;;;;;;;9.75;6.05;;;22.30;70.00;;;;;;5023053;28;20117;-72
2021/08/22 10:34:31;;;;;;;10.00;7.20;;;21.70;71.50;;;;;;5018752;28;20359;-70
2021/08/22 10:36:58;;;;;;;8.88;6.43;;;21.30;73.60;;;;;;5014529;28;20116;-72
2021/08/22 10:39:26;;;;;;;11.05;6.82;;;21.50;73.10;;;;;;5021064;28;20485;-75
2021/08/22 10:41:56;;;;;;;8.65;5.93;;;21.60;72.40;;;;;;5022511;28;20469;-69
2021/08/22 10:44:36;;;;;;;11.60;7.07;;;21.30;72.40;;;;;;5010456;28;20045;-69
2021/08/22 10:47:04;;;;;;;11.27;8.60;;;21.10;72.60;;;;;;5024515;28;20072;-70
2021/08/22 10:49:54;;;;;;;12.88;7.40;;;20.60;74.00;;;;;;5015995;28;20041;-69
2021/08/22 10:52:27;;;;;;;12.90;6.70;;;20.10;74.70;;;;;;5024187;28;20049;-70
2021/08/22 10:55:15;;;;;;;13.07;6.50;;;19.90;76.40;;;;;;5013680;28;20037;-70
2021/08/22 11:00:39;;;;;;;11.32;7.40;;;19.90;77.10;;;;;;5013205;28;20041;-70
2021/08/22 11:03:17;;;;;;;11.18;7.97;;;19.80;77.10;;;;;;5011071;28;20037;-70
2021/08/22 11:05:45;;;;;;;9.88;8.27;;;19.60;77.70;;;;;;5013328;28;20049;-69
2021/08/22 11:08:18;;;;;;;10.88;8.40;;;19.70;77.30;;;;;;5011547;28;20041;-70
2021/08/22 11:11:06;;;;;;;10.77;7.80;;;19.80;78.20;;;;;;5011592;28;20040;-70
2021/08/22 11:13:37;;;;;;;11.15;8.88;;;19.60;79.20;;;;;;5026559;28;20036;-71
2021/08/22 11:16:07;;;;;;;15.02;10.27;;;19.50;80.80;;;;;;5011219;28;20042;-70
2021/08/22 11:18:37;;;;;;;14.07;9.32;;;19.30;82.00;;;;;;5022395;28;20036;-71
2021/08/22 11:21:04;;;;;;;12.13;9.43;;;19.10;82.40;;;;;;5011226;28;20038;-70
2021/08/22 11:23:30;;;;;;;12.25;9.88;;;19.10;83.60;;;;;;5024621;28;20045;-70
2021/08/22 11:26:05;;;;;;;13.38;10.48;;;19.10;83.00;;;;;;5022948;28;20092;-70
2021/08/22 11:28:31;;;;;;;13.13;10.65;;;19.20;83.30;;;;;;5016458;28;20044;-70
2021/08/22 11:30:57;;;;;;;12.65;11.27;;;19.20;83.20;;;;;;5020965;28;20045;-69
2021/08/22 11:33:26;;;;;;;14.68;11.90;;;19.40;83.40;;;;;;5017422;28;20042;-70
2021/08/22 11:35:52;;;;;;;19.38;14.10;;;19.40;83.40;;;;;;5017127;28;20048;-70
2021/08/22 11:38:18;;;;;;;17.00;12.95;;;19.50;84.10;;;;;;5014937;28;20432;-70
2021/08/22 11:40:45;;;;;;;15.73;12.75;;;19.50;83.00;;;;;;5014688;28;20041;-70
2021/08/22 11:43:12;;;;;;;13.98;12.57;;;19.60;83.00;;;;;;5015502;28;20029;-70
2021/08/22 11:45:44;;;;;;;13.13;10.60;;;19.70;83.10;;;;;;5022842;28;20068;-71
2021/08/22 11:48:19;;;;;;;14.55;11.73;;;20.00;82.80;;;;;;5015409;28;20069;-70
2021/08/22 11:50:46;;;;;;;15.57;12.05;;;20.20;81.80;;;;;;5024361;28;20109;-70
2021/08/22 11:53:12;;;;;;;15.05;12.13;;;20.10;81.80;;;;;;5038519;28;20042;-70
2021/08/22 11:55:41;;;;;;;14.88;11.90;;;20.20;80.90;;;;;;5018221;28;20030;-70
2021/08/22 11:58:15;;;;;;;15.27;12.02;;;20.10;82.00;;;;;;5014141;28;20034;-70
2021/08/22 12:00:50;;;;;;;15.65;12.25;;;20.20;81.40;;;;;;5018504;28;20040;-70
2021/08/22 12:03:19;;;;;;;18.15;11.40;;;20.30;80.80;;;;;;5017281;28;20437;-71
2021/08/22 12:06:01;;;;;;;16.05;11.45;;;20.40;80.70;;;;;;5022416;28;20157;-70
2021/08/22 12:08:31;;;;;;;13.95;9.02;;;20.60;80.70;;;;;;5015371;28;20026;-71
2021/08/22 12:11:16;;;;;;;12.35;8.23;;;20.80;78.80;;;;;;5012989;28;20030;-70
2021/08/22 12:13:44;;;;;;;16.85;8.43;;;20.70;79.30;;;;;;5023632;28;20114;-71
2021/08/22 12:16:21;;;;;;;12.25;7.60;;;20.70;79.40;;;;;;5013935;28;20034;-71
2021/08/22 12:18:47;;;;;;;11.02;7.13;;;20.40;78.90;;;;;;5015047;28;20030;-70
2021/08/22 12:21:15;;;;;;;11.30;7.03;;;20.30;79.30;;;;;;5022546;28;20037;-70
2021/08/22 12:23:42;;;;;;;12.27;6.57;;;20.60;78.80;;;;;;5028577;28;20486;-70
2021/08/22 12:26:20;;;;;;;10.55;6.10;;;20.90;78.20;;;;;;5023030;28;20116;-70
2021/08/22 12:28:47;;;;;;;9.55;5.90;;;21.00;76.10;;;;;;5012414;28;20465;-70
2021/08/22 12:31:15;;;;;;;9.75;5.18;;;20.90;76.10;;;;;;5025724;28;20104;-70
2021/08/22 12:33:46;;;;;;;9.68;5.50;;;20.80;76.10;;;;;;5023494;28;20024;-70
2021/08/22 12:36:19;;;;;;;8.68;5.32;;;21.10;76.40;;;;;;5025351;28;20052;-70
2021/08/22 12:38:54;;;;;;;8.70;4.67;;;21.10;74.90;;;;;;5012472;28;20079;-72
2021/08/22 12:41:23;;;;;;;8.90;4.68;;;21.50;74.00;;;;;;5027637;28;20728;-71
2021/08/22 12:43:50;;;;;;;7.60;4.22;;;21.50;73.00;;;;;;5031486;28;20037;-70
2021/08/22 12:46:15;;;;;;;6.05;3.80;;;21.70;72.20;;;;;;5027994;28;20042;-73
2021/08/22 12:48:41;;;;;;;8.55;4.07;;;21.30;71.30;;;;;;5013013;28;20496;-70
2021/08/22 12:51:10;;;;;;;6.82;3.70;;;21.30;72.30;;;;;;5011596;28;20036;-71